Time;durP1;ratioP1;P1;durP2;ratioP2;P2;SDS_P1;SDS_P2;PMS_P1;PMS_P2;Temp;Humidity;BMP_temperature;BMP_pressure;BME280_temperature;BME280_humidity;BME280_pressure;Samples;Min_cycle;Max_cycle;Signal;HPM_P1;HPM_P2
2022/11/02 00:01:22;;;;;;;;;;;;;;;8.47;93.90;97110.56;5068641;28;19960;-73
2022/11/02 00:03:48;;;;;;;;;;;;;;;8.45;93.81;97109.94;5067008;28;20442;-72
2022/11/02 00:06:14;;;;;;;;;;;;;;;8.43;93.55;97106.69;5066315;28;19959;-72
2022/11/02 00:08:40;;;;;;;;;;;;;;;8.40;93.66;97117.50;5062032;28;19984;-72
2022/11/02 00:11:06;;;;;;;;;;;;;;;8.40;92.86;97116.69;5067353;28;19969;-72
2022/11/02 00:13:32;;;;;;;;;;;;;;;8.37;93.05;97117.06;5067872;28;19968;-72
2022/11/02 00:16:01;;;;;;;;;;;;;;;8.33;92.75;97112.19;5066532;28;20007;-73
2022/11/02 00:18:28;;;;;;;;;;;;;;;8.32;93.96;97121.03;5064515;28;19956;-72
2022/11/02 00:20:54;;;;;;;;;;;;;;;8.32;95.23;97125.47;5060899;28;19953;-72
2022/11/02 00:23:21;;;;;;;;;;;;;;;8.30;95.88;97130.88;5066014;28;19964;-71
2022/11/02 00:25:48;;;;;;;;;;;;;;;8.32;95.80;97128.09;5068711;28;19970;-71
2022/11/02 00:28:14;;;;;;;;;;;;;;;8.32;95.61;97128.88;5062077;28;19959;-71
2022/11/02 00:30:40;;;;;;;;;;;;;;;8.32;95.31;97128.09;5063798;28;19962;-73
2022/11/02 00:33:06;;;;;;;;;;;;;;;8.32;94.95;97130.69;5064887;28;20320;-71
2022/11/02 00:35:32;;;;;;;;;;;;;;;8.32;96.06;97141.94;5065588;28;19990;-72
2022/11/02 00:37:58;;;;;;;;;;;;;;;8.32;95.86;97141.94;5071248;28;19964;-72
2022/11/02 00:40:24;;;;;;;;;;;;;;;8.32;96.20;97133.31;5064611;28;20436;-75
2022/11/02 00:42:50;;;;;;;;;;;;;;;8.33;95.73;97132.31;5060266;28;19949;-71
2022/11/02 00:45:16;;;;;;;;;;;;;;;8.32;95.35;97130.69;5064335;28;19954;-71
2022/11/02 00:47:42;;;;;;;;;;;;;;;8.31;95.16;97126.44;5061889;28;19970;-71
2022/11/02 00:50:08;;;;;;;;;;;;;;;8.29;95.07;97136.28;5067566;28;19959;-72
2022/11/02 00:52:34;;;;;;;;;;;;;;;8.28;94.68;97139.91;5066277;28;19953;-72
2022/11/02 00:54:59;;;;;;;;;;;;;;;8.27;95.33;97153.94;5057719;28;19983;-72
2022/11/02 00:57:25;;;;;;;;;;;;;;;8.26;95.11;97155.75;5047583;28;20495;-72
2022/11/02 00:59:51;;;;;;;;;;;;;;;8.29;100.00;97150.19;5063548;28;20387;-72
2022/11/02 01:02:17;;;;;;;;;;;;;;;8.49;100.00;97144.34;5063773;28;19981;-72
2022/11/02 01:04:43;;;;;;;;;;;;;;;8.54;98.08;97126.28;5066217;28;19960;-72
2022/11/02 01:07:09;;;;;;;;;;;;;;;8.52;96.29;97133.50;5063451;28;20330;-72
2022/11/02 01:09:35;;;;;;;;;;;;;;;8.49;95.48;97126.06;5061644;28;19958;-72
2022/11/02 01:12:01;;;;;;;;;;;;;;;8.44;95.17;97125.78;5069961;28;19959;-71
2022/11/02 01:14:26;;;;;;;;;;;;;;;8.39;94.82;97128.16;5067752;28;20018;-72
2022/11/02 01:16:52;;;;;;;;;;;;;;;8.32;94.71;97125.47;5061594;28;19947;-72
2022/11/02 01:19:18;;;;;;;;;;;;;;;8.26;94.54;97132.25;5064481;28;19952;-72
2022/11/02 01:21:44;;;;;;;;;;;;;;;8.22;94.42;97130.19;5064391;28;20156;-72
2022/11/02 01:24:10;;;;;;;;;;;;;;;8.18;94.06;97121.09;5064210;28;20417;-71
2022/11/02 01:26:36;;;;;;;;;;;;;;;8.14;94.31;97123.28;5069950;28;19958;-71
2022/11/02 01:29:02;;;;;;;;;;;;;;;8.10;94.20;97115.00;5056925;28;19960;-72
2022/11/02 01:31:27;;;;;;;;;;;;;;;8.07;94.71;97115.38;5063365;28;19957;-73
2022/11/02 01:33:53;;;;;;;;;;;;;;;8.05;94.80;97113.94;5066030;28;19973;-72
2022/11/02 01:36:20;;;;;;;;;;;;;;;8.04;95.20;97114.91;5064516;28;19947;-72
2022/11/02 01:38:46;;;;;;;;;;;;;;;8.01;95.48;97110.88;5068610;28;19965;-72
2022/11/02 01:41:12;;;;;;;;;;;;;;;8.00;95.69;97106.66;5037204;28;20328;-73
2022/11/02 01:43:42;;;;;;;;;;;;;;;8.00;96.27;97108.44;5063149;28;19961;-72
2022/11/02 01:46:11;;;;;;;;;;;;;;;7.99;96.76;97105.03;5063506;28;19980;-73
2022/11/02 01:48:49;;;;;;;;;;;;;;;8.00;97.38;97111.91;5056474;28;19957;-71
2022/11/02 01:51:21;;;;;;;;;;;;;;;8.03;100.00;97103.69;5067098;28;19959;-72
2022/11/02 01:53:49;;;;;;;;;;;;;;;8.11;99.54;97093.09;5070108;28;20047;-72
2022/11/02 01:56:16;;;;;;;;;;;;;;;8.12;97.63;97089.50;5063590;28;20504;-73
2022/11/02 01:58:45;;;;;;;;;;;;;;;8.11;97.11;97089.69;5056911;28;19961;-74
2022/11/02 02:01:11;;;;;;;;;;;;;;;8.08;97.04;97083.03;5050486;28;19955;-72
2022/11/02 02:03:37;;;;;;;;;;;;;;;8.05;96.91;97080.78;5044770;28;19963;-73
2022/11/02 02:06:08;;;;;;;;;;;;;;;8.03;96.73;97085.38;5058352;28;19961;-72
2022/11/02 02:08:37;;;;;;;;;;;;;;;8.02;96.39;97083.78;5061602;28;20341;-72
2022/11/02 02:11:23;;;;;;;;;;;;;;;7.99;96.75;97075.50;5064186;28;20328;-72
2022/11/02 02:13:48;;;;;;;;;;;;;;;8.00;96.95;97082.34;5065993;28;19970;-72
2022/11/02 02:16:17;;;;;;;;;;;;;;;8.00;97.92;97085.78;5063689;28;20358;-72
2022/11/02 02:18:49;;;;;;;;;;;;;;;8.01;97.84;97076.94;5059299;28;19958;-73
2022/11/02 02:21:33;;;;;;;;;;;;;;;8.03;98.20;97085.38;5065767;28;19959;-72
2022/11/02 02:24:04;;;;;;;;;;;;;;;8.05;98.72;97088.63;5065448;28;19955;-72
2022/11/02 02:26:40;;;;;;;;;;;;;;;8.05;98.25;97083.41;5066624;28;19954;-72
2022/11/02 02:29:13;;;;;;;;;;;;;;;8.05;98.17;97080.78;5061347;28;19953;-72
2022/11/02 02:31:45;;;;;;;;;;;;;;;8.05;98.09;97078.19;5059889;28;19943;-73
2022/11/02 02:34:11;;;;;;;;;;;;;;;8.03;97.60;97079.38;5063376;28;19974;-72
2022/11/02 02:36:48;;;;;;;;;;;;;;;8.02;97.46;97078.56;5065566;28;19964;-72
2022/11/02 02:39:20;;;;;;;;;;;;;;;8.01;97.42;97076.94;5039616;28;20351;-72
2022/11/02 02:41:55;;;;;;;;;;;;;;;8.01;98.28;97074.31;5044206;28;20349;-72
2022/11/02 02:44:22;;;;;;;;;;;;;;;8.00;98.08;97072.72;5053539;28;19963;-72
2022/11/02 02:46:56;;;;;;;;;;;;;;;7.98;97.34;97063.44;5063774;28;19973;-73
2022/11/02 02:49:27;;;;;;;;;;;;;;;7.95;97.52;97071.66;5065570;28;19960;-72
2022/11/02 02:51:55;;;;;;;;;;;;;;;7.93;97.16;97058.75;5067957;28;20000;-72
2022/11/02 02:54:23;;;;;;;;;;;;;;;7.91;96.82;97053.72;5062903;28;19960;-73
2022/11/02 02:56:52;;;;;;;;;;;;;;;7.89;96.62;97060.94;5042649;28;19943;-72
2022/11/02 02:59:30;;;;;;;;;;;;;;;7.89;96.88;97063.53;5065242;28;19957;-73
2022/11/02 03:01:57;;;;;;;;;;;;;;;7.87;97.04;97055.09;5066980;28;19963;-73
2022/11/02 03:04:23;;;;;;;;;;;;;;;7.88;97.47;97059.31;5062920;28;19954;-72
2022/11/02 03:06:57;;;;;;;;;;;;;;;7.88;97.81;97066.34;5063488;28;19958;-73
2022/11/02 03:09:26;;;;;;;;;;;;;;;7.87;97.36;97055.09;5052839;28;19955;-72
2022/11/02 03:11:58;;;;;;;;;;;;;;;7.87;97.31;97051.66;5065068;28;19959;-72
2022/11/02 03:14:24;;;;;;;;;;;;;;;7.86;97.80;97057.91;5037319;28;19960;-72
2022/11/02 03:17:04;;;;;;;;;;;;;;;7.85;97.85;97064.94;5062928;28;20407;-72
2022/11/02 03:19:30;;;;;;;;;;;;;;;7.83;97.80;97066.91;5055702;28;19955;-72
2022/11/02 03:22:26;;;;;;;;;;;;;;;7.83;97.68;97069.53;5049216;28;19947;-72
2022/11/02 03:24:56;;;;;;;;;;;;;;;7.82;97.75;97072.31;4987691;28;19949;-71
2022/11/02 03:27:48;;;;;;;;;;;;;;;7.80;97.72;97072.50;5066315;28;19952;-72
2022/11/02 03:30:16;;;;;;;;;;;;;;;7.80;98.51;97074.31;5056304;28;19952;-72
2022/11/02 03:33:01;;;;;;;;;;;;;;;7.80;98.28;97080.31;5064233;28;19953;-72
2022/11/02 03:35:31;;;;;;;;;;;;;;;7.78;98.26;97084.94;5066765;28;19971;-72
2022/11/02 03:38:02;;;;;;;;;;;;;;;7.80;98.18;97089.97;5070760;28;20305;-72
2022/11/02 03:40:30;;;;;;;;;;;;;;;7.79;98.47;97089.16;5061550;28;19951;-72
2022/11/02 03:42:57;;;;;;;;;;;;;;;7.78;98.51;97084.13;5064881;28;19960;-72
2022/11/02 03:45:26;;;;;;;;;;;;;;;7.76;98.42;97086.91;5068097;28;19969;-72
2022/11/02 03:47:54;;;;;;;;;;;;;;;7.77;98.78;97098.16;5069805;28;19956;-73
2022/11/02 03:50:21;;;;;;;;;;;;;;;7.78;99.18;97099.78;5070365;28;20420;-74
2022/11/02 03:52:51;;;;;;;;;;;;;;;7.77;99.18;97093.75;5066501;28;19949;-73
2022/11/02 03:55:19;;;;;;;;;;;;;;;7.77;99.16;97098.16;5066079;28;19966;-72
2022/11/02 03:57:46;;;;;;;;;;;;;;;7.77;99.21;97093.75;5061596;28;19967;-72
2022/11/02 04:00:16;;;;;;;;;;;;;;;7.77;99.08;97098.97;5071637;28;19957;-73
2022/11/02 04:02:44;;;;;;;;;;;;;;;7.77;99.46;97100.75;5062675;28;19953;-72
2022/11/02 04:05:10;;;;;;;;;;;;;;;7.77;99.51;97103.38;5062063;28;19956;-73
2022/11/02 04:10:21;;;;;;;;;;;;;;;7.77;99.54;97098.16;5068155;28;19961;-72
2022/11/02 04:15:32;;;;;;;;;;;;;;;7.74;99.60;97109.78;5063749;28;19974;-73
2022/11/02 04:20:42;;;;;;;;;;;;;;;7.71;100.00;97121.41;5065120;28;19963;-73
2022/11/02 04:25:55;;;;;;;;;;;;;;;7.70;100.00;97113.75;5061997;28;19963;-72
2022/11/02 04:28:21;;;;;;;;;;;;;;;7.68;100.00;97111.31;5065296;28;19952;-72
2022/11/02 04:30:46;;;;;;;;;;;;;;;7.70;99.63;97111.13;5065018;28;20036;-73
2022/11/02 04:36:05;;;;;;;;;;;;;;;7.70;99.84;97111.94;5063951;28;19991;-73
2022/11/02 04:38:40;;;;;;;;;;;;;;;7.71;99.64;97121.41;5059470;28;20410;-74
2022/11/02 04:43:55;;;;;;;;;;;;;;;7.72;99.85;97122.22;5064769;28;20433;-73
2022/11/02 04:46:21;;;;;;;;;;;;;;;7.71;99.78;97126.63;5069817;28;19959;-73
2022/11/02 04:48:47;;;;;;;;;;;;;;;7.73;99.48;97123.84;5067825;28;20408;-73
2022/11/02 04:51:14;;;;;;;;;;;;;;;7.73;99.51;97126.44;5058466;28;19962;-73
2022/11/02 04:53:40;;;;;;;;;;;;;;;7.70;99.65;97125.00;5065384;28;19952;-73
2022/11/02 04:56:06;;;;;;;;;;;;;;;7.70;99.20;97126.81;5064933;28;19975;-73
2022/11/02 04:58:31;;;;;;;;;;;;;;;7.69;98.87;97125.19;5065143;28;19960;-73
2022/11/02 05:00:57;;;;;;;;;;;;;;;7.68;99.54;97132.19;5068005;28;20407;-73
2022/11/02 05:03:23;;;;;;;;;;;;;;;7.67;99.56;97138.44;5068165;28;20368;-73
2022/11/02 05:05:55;;;;;;;;;;;;;;;7.67;99.92;97137.63;5061872;28;19951;-73
2022/11/02 05:08:21;;;;;;;;;;;;;;;7.66;99.61;97141.22;5065218;28;19976;-73
2022/11/02 05:10:47;;;;;;;;;;;;;;;7.65;99.94;97137.78;5062300;28;20482;-73
2022/11/02 05:13:13;;;;;;;;;;;;;;;7.64;99.82;97151.03;5066710;28;20000;-73
2022/11/02 05:15:39;;;;;;;;;;;;;;;7.61;99.38;97139.16;5067299;28;19982;-72
2022/11/02 05:18:05;;;;;;;;;;;;;;;7.59;99.16;97137.72;5061677;28;19973;-73
2022/11/02 05:20:30;;;;;;;;;;;;;;;7.58;99.36;97141.31;5062885;28;19959;-73
2022/11/02 05:22:56;;;;;;;;;;;;;;;7.55;99.43;97146.91;5058969;28;19960;-73
2022/11/02 05:25:22;;;;;;;;;;;;;;;7.50;99.72;97150.06;5067733;28;20046;-72
2022/11/02 05:27:48;;;;;;;;;;;;;;;7.44;99.58;97156.00;5065146;28;20390;-73
2022/11/02 05:30:14;;;;;;;;;;;;;;;7.42;99.65;97157.97;5059697;28;19956;-73
2022/11/02 05:32:40;;;;;;;;;;;;;;;7.39;100.00;97169.59;5069241;28;20000;-73
2022/11/02 05:35:06;;;;;;;;;;;;;;;7.38;99.98;97159.31;5060224;28;19980;-73
2022/11/02 05:37:32;;;;;;;;;;;;;;;7.37;99.63;97155.91;5063020;28;19958;-73
2022/11/02 05:39:58;;;;;;;;;;;;;;;7.38;99.56;97173.19;5060533;28;20369;-73
2022/11/02 05:42:24;;;;;;;;;;;;;;;7.39;99.44;97166.16;5067895;28;19946;-73
2022/11/02 05:44:50;;;;;;;;;;;;;;;7.38;99.28;97169.75;5063135;28;20423;-73
2022/11/02 05:47:16;;;;;;;;;;;;;;;7.37;99.41;97166.34;5062783;28;19962;-73
2022/11/02 05:49:42;;;;;;;;;;;;;;;7.38;99.41;97169.75;5062724;28;19960;-73
2022/11/02 05:52:08;;;;;;;;;;;;;;;7.38;99.25;97170.56;5056708;28;20052;-75
2022/11/02 05:54:33;;;;;;;;;;;;;;;7.36;99.40;97163.91;5045537;28;19978;-73
2022/11/02 05:56:59;;;;;;;;;;;;;;;7.35;99.43;97172.72;5062234;28;19965;-73
2022/11/02 05:59:25;;;;;;;;;;;;;;;7.32;99.13;97166.88;5064205;28;19960;-73
2022/11/02 06:01:51;;;;;;;;;;;;;;;7.33;99.31;97162.47;5060316;28;20018;-73
2022/11/02 06:04:17;;;;;;;;;;;;;;;7.33;98.99;97167.69;5059557;28;19957;-73
2022/11/02 06:06:43;;;;;;;;;;;;;;;7.30;99.22;97165.44;5044777;28;20374;-73
2022/11/02 06:09:08;;;;;;;;;;;;;;;7.28;99.57;97180.44;5062864;28;19979;-73
2022/11/02 06:11:34;;;;;;;;;;;;;;;7.26;99.39;97175.41;5062996;28;20000;-73
2022/11/02 06:14:02;;;;;;;;;;;;;;;7.26;99.17;97174.59;5063743;28;19987;-73
2022/11/02 06:16:28;;;;;;;;;;;;;;;7.26;99.18;97185.03;5041280;28;20451;-73
2022/11/02 06:18:54;;;;;;;;;;;;;;;7.27;99.39;97199.72;5062156;28;19962;-73
2022/11/02 06:21:20;;;;;;;;;;;;;;;7.25;99.12;97194.66;5047125;28;20332;-73
2022/11/02 06:23:47;;;;;;;;;;;;;;;7.27;99.17;97191.91;5063455;28;20002;-73
2022/11/02 06:26:13;;;;;;;;;;;;;;;7.26;99.02;97190.25;5060014;28;20328;-73
2022/11/02 06:28:39;;;;;;;;;;;;;;;7.27;98.61;97187.47;5056489;28;20305;-74
2022/11/02 06:31:05;;;;;;;;;;;;;;;7.30;99.15;97200.16;5067202;28;19967;-73
2022/11/02 06:33:31;;;;;;;;;;;;;;;7.29;99.55;97198.53;5065448;28;19946;-74
2022/11/02 06:35:57;;;;;;;;;;;;;;;7.33;99.76;97214.66;5065001;28;19959;-73
2022/11/02 06:38:23;;;;;;;;;;;;;;;7.38;100.00;97214.94;5061324;28;20475;-73
2022/11/02 06:40:54;;;;;;;;;;;;;;;7.43;100.00;97220.44;5062879;28;19959;-73
2022/11/02 06:43:20;;;;;;;;;;;;;;;7.49;100.00;97224.13;5061967;28;19954;-73
2022/11/02 06:45:46;;;;;;;;;;;;;;;7.53;100.00;97228.78;5061399;28;19960;-74
2022/11/02 06:48:12;;;;;;;;;;;;;;;7.60;100.00;97226.31;5067278;28;20053;-73
2022/11/02 06:50:38;;;;;;;;;;;;;;;7.65;100.00;97238.81;5061700;28;19957;-73
2022/11/02 06:53:04;;;;;;;;;;;;;;;7.68;100.00;97241.03;5066016;28;19957;-73
2022/11/02 06:55:29;;;;;;;;;;;;;;;7.71;100.00;97240.69;5058097;28;19995;-73
2022/11/02 06:57:55;;;;;;;;;;;;;;;7.76;100.00;97246.19;5068245;28;20050;-72
2022/11/02 07:00:21;;;;;;;;;;;;;;;7.81;100.00;97249.09;5065232;28;20009;-72
2022/11/02 07:03:00;;;;;;;;;;;;;;;7.85;100.00;97245.13;5073884;28;19953;-72
2022/11/02 07:05:26;;;;;;;;;;;;;;;7.89;100.00;97256.78;5071058;28;19974;-72
2022/11/02 07:07:53;;;;;;;;;;;;;;;7.94;100.00;97253.66;5065290;28;20433;-73
2022/11/02 07:10:19;;;;;;;;;;;;;;;7.99;100.00;97264.38;5044750;28;19968;-72
2022/11/02 07:12:45;;;;;;;;;;;;;;;8.06;100.00;97264.44;5065757;28;19961;-73
2022/11/02 07:15:10;;;;;;;;;;;;;;;8.11;100.00;97267.34;5071547;28;20058;-73
2022/11/02 07:17:40;;;;;;;;;;;;;;;8.18;100.00;97273.44;5066211;28;20451;-72
2022/11/02 07:20:06;;;;;;;;;;;;;;;8.23;100.00;97271.13;5065499;28;19956;-73
2022/11/02 07:22:32;;;;;;;;;;;;;;;8.26;100.00;97272.56;5066447;28;19958;-72
2022/11/02 07:24:58;;;;;;;;;;;;;;;8.31;100.00;97278.81;5065101;28;19957;-73
2022/11/02 07:27:24;;;;;;;;;;;;;;;8.37;100.00;97279.09;5056899;28;20012;-72
2022/11/02 07:29:49;;;;;;;;;;;;;;;8.41;100.00;97281.19;5056343;28;19951;-72
2022/11/02 07:32:15;;;;;;;;;;;;;;;8.45;100.00;97287.69;5066478;28;19991;-73
2022/11/02 07:34:41;;;;;;;;;;;;;;;8.50;100.00;97287.13;5061546;28;20407;-74
2022/11/02 07:37:07;;;;;;;;;;;;;;;8.54;100.00;97285.75;5053426;28;20407;-74
2022/11/02 07:39:33;;;;;;;;;;;;;;;8.66;100.00;97283.50;5068797;28;19959;-73
2022/11/02 07:41:59;;;;;;;;;;;;;;;8.83;100.00;97282.25;5065255;28;19960;-75
2022/11/02 07:44:24;;;;;;;;;;;;;;;9.00;100.00;97282.03;5062023;28;19984;-73
2022/11/02 07:46:50;;;;;;;;;;;;;;;9.19;99.85;97275.34;5047411;28;20390;-74
2022/11/02 07:49:16;;;;;;;;;;;;;;;9.37;99.02;97274.91;5069337;28;20057;-74
2022/11/02 07:51:42;;;;;;;;;;;;;;;9.55;97.82;97267.38;5065979;28;19953;-73
2022/11/02 07:54:08;;;;;;;;;;;;;;;9.78;97.64;97266.31;5062559;28;19963;-74
2022/11/02 07:56:34;;;;;;;;;;;;;;;10.00;96.22;97264.44;5070108;28;20436;-74
2022/11/02 07:59:00;;;;;;;;;;;;;;;10.20;95.89;97269.75;5065299;28;20377;-73
2022/11/02 08:01:26;;;;;;;;;;;;;;;10.35;94.69;97276.53;5065425;28;19959;-74
2022/11/02 08:03:53;;;;;;;;;;;;;;;10.47;94.91;97279.38;5067943;28;20008;-74
2022/11/02 08:06:19;;;;;;;;;;;;;;;10.66;95.28;97282.25;5066702;28;19955;-74
2022/11/02 08:08:45;;;;;;;;;;;;;;;10.87;95.25;97268.19;5067633;28;19986;-74
2022/11/02 08:11:11;;;;;;;;;;;;;;;11.07;94.69;97271.66;5065202;28;20443;-74
2022/11/02 08:13:37;;;;;;;;;;;;;;;11.21;94.35;97269.84;5064214;28;19995;-75
2022/11/02 08:16:03;;;;;;;;;;;;;;;11.32;94.22;97265.81;5065818;28;19969;-74
2022/11/02 08:18:29;;;;;;;;;;;;;;;11.41;93.18;97269.03;5065500;28;19953;-75
2022/11/02 08:20:56;;;;;;;;;;;;;;;11.49;92.94;97268.84;5052847;28;19965;-74
2022/11/02 08:23:22;;;;;;;;;;;;;;;11.48;92.58;97275.09;5064294;28;19963;-74
2022/11/02 08:25:49;;;;;;;;;;;;;;;11.45;93.10;97271.06;5040953;28;20334;-76
2022/11/02 08:28:16;;;;;;;;;;;;;;;11.45;93.76;97278.13;5037539;28;20316;-75
2022/11/02 08:30:42;;;;;;;;;;;;;;;11.37;93.44;97271.25;5068491;28;19957;-75
2022/11/02 08:33:14;;;;;;;;;;;;;;;11.34;93.82;97280.34;5060069;28;20432;-74
2022/11/02 08:35:41;;;;;;;;;;;;;;;11.32;93.99;97294.72;5064112;28;19974;-74
2022/11/02 08:38:07;;;;;;;;;;;;;;;11.35;93.66;97283.78;5068806;28;19982;-74
2022/11/02 08:40:33;;;;;;;;;;;;;;;11.41;95.07;97295.31;5068285;28;19975;-73
2022/11/02 08:43:00;;;;;;;;;;;;;;;11.44;96.16;97300.16;5059083;28;20420;-74
2022/11/02 08:45:26;;;;;;;;;;;;;;;11.53;95.23;97296.31;5064473;28;19958;-74
2022/11/02 08:47:53;;;;;;;;;;;;;;;11.65;95.13;97286.00;5063200;28;20029;-74
2022/11/02 08:50:19;;;;;;;;;;;;;;;11.75;95.71;97292.44;5069800;28;20399;-74
2022/11/02 08:52:45;;;;;;;;;;;;;;;11.83;93.63;97282.75;5065065;28;20319;-74
2022/11/02 08:55:11;;;;;;;;;;;;;;;11.87;92.89;97276.88;5064030;28;20057;-74
2022/11/02 08:57:44;;;;;;;;;;;;;;;11.97;93.71;97284.38;5065113;28;19949;-74
2022/11/02 09:00:10;;;;;;;;;;;;;;;12.09;94.50;97292.41;5063367;28;19961;-74
2022/11/02 09:02:35;;;;;;;;;;;;;;;12.18;91.66;97263.06;5070024;28;19961;-74
2022/11/02 09:05:01;;;;;;;;;;;;;;;12.37;91.17;97265.84;5061638;28;20007;-74
2022/11/02 09:07:27;;;;;;;;;;;;;;;12.54;89.15;97259.06;5071095;28;20030;-74
2022/11/02 09:09:53;;;;;;;;;;;;;;;12.68;87.55;97249.28;5054753;28;19950;-75
2022/11/02 09:12:19;;;;;;;;;;;;;;;12.82;88.09;97255.28;5064937;28;20655;-74
2022/11/02 09:14:45;;;;;;;;;;;;;;;12.89;83.72;97232.38;5063955;28;20417;-74
2022/11/02 09:17:11;;;;;;;;;;;;;;;12.91;86.49;97256.63;5039901;28;20016;-74
2022/11/02 09:19:37;;;;;;;;;;;;;;;12.90;84.01;97238.44;5062507;28;20004;-75
2022/11/02 09:22:03;;;;;;;;;;;;;;;13.03;92.49;97298.09;5064493;28;19961;-74
2022/11/02 09:24:28;;;;;;;;;;;;;;;13.20;90.74;97284.19;5067375;28;19957;-74
2022/11/02 09:26:54;;;;;;;;;;;;;;;13.29;85.23;97249.69;5063364;28;19985;-74
2022/11/02 09:29:20;;;;;;;;;;;;;;;13.28;79.49;97204.09;5062836;28;19951;-74
2022/11/02 09:31:47;;;;;;;;;;;;;;;13.25;82.17;97224.78;5065404;28;20036;-74
2022/11/02 09:34:14;;;;;;;;;;;;;;;13.17;81.85;97225.88;5064592;28;19962;-74
2022/11/02 09:36:40;;;;;;;;;;;;;;;13.10;81.36;97217.19;5061175;28;19971;-73
2022/11/02 09:39:06;;;;;;;;;;;;;;;13.03;82.13;97235.69;5040375;28;19959;-74
2022/11/02 09:41:34;;;;;;;;;;;;;;;12.99;83.59;97250.31;5061483;28;20003;-74
2022/11/02 09:44:06;;;;;;;;;;;;;;;12.96;83.22;97246.28;5043163;28;20401;-74
2022/11/02 09:46:35;;;;;;;;;;;;;;;12.92;81.80;97252.97;5066241;28;19961;-74
2022/11/02 09:49:14;;;;;;;;;;;;;;;12.89;81.92;97249.97;5063727;28;20405;-74
2022/11/02 09:51:58;;;;;;;;;;;;;;;12.88;82.31;97258.88;5065634;28;20350;-74
2022/11/02 09:54:28;;;;;;;;;;;;;;;12.86;81.39;97247.75;5051160;28;20307;-73
2022/11/02 09:56:56;;;;;;;;;;;;;;;12.84;80.93;97237.44;5044142;28;19972;-73
2022/11/02 09:59:23;;;;;;;;;;;;;;;12.83;81.29;97256.91;5063642;28;20332;-73
2022/11/02 10:01:49;;;;;;;;;;;;;;;12.83;80.55;97242.91;5066406;28;19977;-73
2022/11/02 10:04:18;;;;;;;;;;;;;;;12.86;83.19;97276.72;5064907;28;20420;-74
2022/11/02 10:06:50;;;;;;;;;;;;;;;12.84;80.21;97245.34;5023801;28;19961;-74
2022/11/02 10:09:27;;;;;;;;;;;;;;;12.86;80.57;97255.66;5069428;28;20336;-74
2022/11/02 10:11:57;;;;;;;;;;;;;;;12.91;81.42;97261.09;5064255;28;19964;-74
2022/11/02 10:14:26;;;;;;;;;;;;;;;12.95;81.11;97257.00;5060616;28;19960;-73
2022/11/02 10:16:55;;;;;;;;;;;;;;;12.99;80.10;97259.00;5064905;28;19961;-74
2022/11/02 10:19:22;;;;;;;;;;;;;;;13.00;78.62;97241.41;5063964;28;19955;-74
2022/11/02 10:21:51;;;;;;;;;;;;;;;13.03;78.54;97242.78;5064112;28;20333;-73
2022/11/02 10:24:24;;;;;;;;;;;;;;;13.04;77.49;97231.22;5053907;28;19962;-73
2022/11/02 10:26:55;;;;;;;;;;;;;;;13.07;77.68;97225.53;5065887;28;19953;-73
2022/11/02 10:29:40;;;;;;;;;;;;;;;13.12;79.23;97234.44;5048849;28;19954;-74
2022/11/02 10:32:09;;;;;;;;;;;;;;;13.14;77.60;97228.91;5069252;28;19967;-73
2022/11/02 10:34:35;;;;;;;;;;;;;;;13.15;78.47;97248.97;5062356;28;20370;-76
2022/11/02 10:37:33;;;;;;;;;;;;;;;13.15;77.30;97226.09;5044689;28;20379;-73
2022/11/02 10:39:59;;;;;;;;;;;;;;;13.18;77.55;97222.19;5001136;28;19957;-73
2022/11/02 10:42:25;;;;;;;;;;;;;;;13.18;77.96;97230.91;5071148;28;20327;-73
2022/11/02 10:45:09;;;;;;;;;;;;;;;13.17;76.09;97207.44;5068131;28;19958;-72
2022/11/02 10:47:42;;;;;;;;;;;;;;;13.17;78.13;97231.94;5066338;28;19952;-74
2022/11/02 10:50:23;;;;;;;;;;;;;;;13.18;77.25;97222.19;5067857;28;19952;-74
2022/11/02 10:52:49;;;;;;;;;;;;;;;13.19;78.50;97232.53;5066174;28;20290;-73
2022/11/02 10:55:44;;;;;;;;;;;;;;;13.22;78.67;97241.03;5061721;28;19970;-75
2022/11/02 10:58:15;;;;;;;;;;;;;;;13.20;76.76;97222.78;5041539;28;19957;-73
2022/11/02 11:00:41;;;;;;;;;;;;;;;13.20;76.71;97214.91;5067634;28;20353;-74
2022/11/02 11:03:07;;;;;;;;;;;;;;;13.24;78.31;97233.72;5068320;28;19958;-74
2022/11/02 11:05:35;;;;;;;;;;;;;;;13.31;77.75;97227.41;5049211;28;20042;-74
2022/11/02 11:08:01;;;;;;;;;;;;;;;13.40;77.69;97230.56;5066147;28;19982;-73
2022/11/02 11:10:27;;;;;;;;;;;;;;;13.51;80.53;97244.88;5062589;28;20355;-73
2022/11/02 11:12:54;;;;;;;;;;;;;;;13.67;76.95;97222.41;5068872;28;19960;-74
2022/11/02 11:15:26;;;;;;;;;;;;;;;13.75;76.54;97222.13;5067543;28;19958;-74
2022/11/02 11:17:52;;;;;;;;;;;;;;;13.77;75.21;97210.34;5061452;28;19964;-74
2022/11/02 11:20:35;;;;;;;;;;;;;;;13.75;73.75;97186.03;5063754;28;19964;-74
2022/11/02 11:23:19;;;;;;;;;;;;;;;13.70;75.60;97208.81;5066051;28;19957;-73
2022/11/02 11:25:53;;;;;;;;;;;;;;;13.70;77.00;97220.16;5055881;28;20408;-74
2022/11/02 11:28:24;;;;;;;;;;;;;;;13.74;77.18;97218.69;5071435;28;19952;-74
2022/11/02 11:31:01;;;;;;;;;;;;;;;13.80;74.72;97195.91;5065991;28;19963;-73
2022/11/02 11:33:27;;;;;;;;;;;;;;;13.87;73.56;97195.84;5051482;28;19956;-73
2022/11/02 11:35:53;;;;;;;;;;;;;;;13.92;71.01;97161.69;5065422;28;19974;-73
2022/11/02 11:38:23;;;;;;;;;;;;;;;13.97;71.82;97157.38;5064761;28;19974;-73
2022/11/02 11:40:54;;;;;;;;;;;;;;;14.04;72.02;97154.66;5064242;28;19958;-74
2022/11/02 11:43:29;;;;;;;;;;;;;;;14.17;72.33;97170.31;5066366;28;19949;-73
2022/11/02 11:46:12;;;;;;;;;;;;;;;14.31;73.07;97180.69;5067652;28;19954;-73
2022/11/02 11:48:53;;;;;;;;;;;;;;;14.39;71.11;97156.63;5063732;28;19957;-73
2022/11/02 11:51:31;;;;;;;;;;;;;;;14.50;71.09;97160.34;5068082;28;19954;-73
2022/11/02 11:54:16;;;;;;;;;;;;;;;14.55;69.22;97132.28;5063772;28;19965;-74
2022/11/02 11:56:42;;;;;;;;;;;;;;;14.57;68.04;97126.75;5067155;28;19972;-74
2022/11/02 11:59:19;;;;;;;;;;;;;;;14.61;66.43;97139.28;5060076;28;19959;-73
2022/11/02 12:01:45;;;;;;;;;;;;;;;14.70;69.25;97184.66;5061913;28;19962;-74
2022/11/02 12:04:11;;;;;;;;;;;;;;;14.78;66.75;97175.59;5066262;28;19998;-73
2022/11/02 12:06:39;;;;;;;;;;;;;;;14.76;64.44;97167.09;5069883;28;19965;-73
2022/11/02 12:09:27;;;;;;;;;;;;;;;14.69;65.00;97164.53;4999394;28;1841716;-74
2022/11/02 12:12:03;;;;;;;;;;;;;;;14.60;64.72;97168.56;5065106;28;20313;-73
2022/11/02 12:14:47;;;;;;;;;;;;;;;14.48;67.46;97176.41;5062844;28;20493;-73
2022/11/02 12:17:19;;;;;;;;;;;;;;;14.38;65.31;97162.94;5065249;28;19973;-73
2022/11/02 12:19:54;;;;;;;;;;;;;;;14.43;65.59;97157.00;5070949;28;19967;-74
2022/11/02 12:22:38;;;;;;;;;;;;;;;14.59;66.13;97166.94;5066165;28;19956;-73
2022/11/02 12:25:18;;;;;;;;;;;;;;;14.78;66.26;97165.84;5055177;28;19964;-73
2022/11/02 12:27:53;;;;;;;;;;;;;;;14.86;61.59;97151.50;5047297;28;19950;-73
2022/11/02 12:30:19;;;;;;;;;;;;;;;14.93;61.96;97151.38;5043465;28;19973;-76
2022/11/02 12:32:45;;;;;;;;;;;;;;;14.93;61.31;97149.56;5065328;28;20415;-73
2022/11/02 12:35:23;;;;;;;;;;;;;;;14.96;62.54;97151.72;5065199;28;19964;-73
2022/11/02 12:37:49;;;;;;;;;;;;;;;15.00;60.58;97141.53;5066393;28;19978;-74
2022/11/02 12:40:25;;;;;;;;;;;;;;;14.92;60.41;97139.22;5064974;28;19959;-73
2022/11/02 12:43:00;;;;;;;;;;;;;;;14.91;61.55;97145.53;5057794;28;20427;-74
2022/11/02 12:45:26;;;;;;;;;;;;;;;14.92;61.84;97144.50;5068876;28;19956;-73
2022/11/02 12:47:56;;;;;;;;;;;;;;;14.96;62.12;97141.16;5069465;28;20003;-74
2022/11/02 12:50:50;;;;;;;;;;;;;;;15.02;60.50;97134.19;5065132;28;19956;-74
2022/11/02 12:53:35;;;;;;;;;;;;;;;15.04;61.04;97145.31;5051883;28;19968;-73
2022/11/02 12:56:04;;;;;;;;;;;;;;;15.13;62.73;97151.84;5060118;28;20324;-73
2022/11/02 12:58:33;;;;;;;;;;;;;;;15.18;59.33;97132.69;5071851;28;20025;-73
2022/11/02 13:01:14;;;;;;;;;;;;;;;15.23;58.55;97136.25;5059344;28;19956;-73
2022/11/02 13:03:43;;;;;;;;;;;;;;;15.29;62.12;97149.59;5064058;28;19969;-74
2022/11/02 13:06:20;;;;;;;;;;;;;;;15.32;60.61;97152.56;5063941;28;19962;-74
2022/11/02 13:08:48;;;;;;;;;;;;;;;15.37;56.62;97130.72;5063224;28;19988;-73
2022/11/02 13:11:19;;;;;;;;;;;;;;;15.42;59.49;97149.34;5059477;28;20402;-73
2022/11/02 13:13:48;;;;;;;;;;;;;;;15.45;59.18;97138.28;5062679;28;20402;-74
2022/11/02 13:16:15;;;;;;;;;;;;;;;15.48;60.13;97139.69;5064570;28;19967;-74